sensor_id;sensor_type;location;lat;lon;timestamp;P1;durP1;ratioP1;P2;durP2;ratioP2
34433;SDS011;34290;48.562;13.384;2023-04-03T00:00:10;4.37;;;2.93;;
34433;SDS011;34290;48.562;13.384;2023-04-03T00:02:38;4.67;;;2.60;;
34433;SDS011;34290;48.562;13.384;2023-04-03T00:05:06;3.77;;;2.17;;
34433;SDS011;34290;48.562;13.384;2023-04-03T00:07:38;4.13;;;2.90;;
34433;SDS011;34290;48.562;13.384;2023-04-03T00:10:05;4.33;;;2.90;;
34433;SDS011;34290;48.562;13.384;2023-04-03T00:12:33;3.30;;;2.40;;
34433;SDS011;34290;48.562;13.384;2023-04-03T00:15:00;4.73;;;2.20;;
34433;SDS011;34290;48.562;13.384;2023-04-03T00:17:27;5.20;;;2.60;;
34433;SDS011;34290;48.562;13.384;2023-04-03T00:19:54;3.00;;;2.30;;
34433;SDS011;34290;48.562;13.384;2023-04-03T00:22:22;2.83;;;2.13;;
34433;SDS011;34290;48.562;13.384;2023-04-03T00:24:53;4.33;;;2.40;;
34433;SDS011;34290;48.562;13.384;2023-04-03T00:27:20;4.30;;;2.87;;
34433;SDS011;34290;48.562;13.384;2023-04-03T00:29:47;5.60;;;2.30;;
34433;SDS011;34290;48.562;13.384;2023-04-03T00:32:14;3.97;;;2.57;;
34433;SDS011;34290;48.562;13.384;2023-04-03T00:34:41;4.50;;;2.70;;
34433;SDS011;34290;48.562;13.384;2023-04-03T00:37:08;5.60;;;2.70;;
34433;SDS011;34290;48.562;13.384;2023-04-03T00:39:35;5.90;;;2.97;;
34433;SDS011;34290;48.562;13.384;2023-04-03T00:42:04;3.60;;;2.70;;
34433;SDS011;34290;48.562;13.384;2023-04-03T00:47:17;5.23;;;2.97;;
34433;SDS011;34290;48.562;13.384;2023-04-03T00:49:44;5.00;;;2.90;;
34433;SDS011;34290;48.562;13.384;2023-04-03T00:52:13;4.80;;;2.73;;
34433;SDS011;34290;48.562;13.384;2023-04-03T00:54:43;6.33;;;2.87;;
34433;SDS011;34290;48.562;13.384;2023-04-03T00:57:13;3.83;;;2.80;;
34433;SDS011;34290;48.562;13.384;2023-04-03T00:59:41;4.47;;;2.80;;
34433;SDS011;34290;48.562;13.384;2023-04-03T01:02:11;5.97;;;2.70;;
34433;SDS011;34290;48.562;13.384;2023-04-03T01:04:40;4.83;;;2.80;;
34433;SDS011;34290;48.562;13.384;2023-04-03T01:07:10;4.63;;;3.10;;
34433;SDS011;34290;48.562;13.384;2023-04-03T01:09:39;5.10;;;3.03;;
34433;SDS011;34290;48.562;13.384;2023-04-03T01:12:15;4.30;;;3.10;;
34433;SDS011;34290;48.562;13.384;2023-04-03T01:14:43;4.90;;;3.23;;
34433;SDS011;34290;48.562;13.384;2023-04-03T01:17:24;4.30;;;2.97;;
34433;SDS011;34290;48.562;13.384;2023-04-03T01:19:57;4.67;;;2.90;;
34433;SDS011;34290;48.562;13.384;2023-04-03T01:22:58;5.03;;;3.10;;
34433;SDS011;34290;48.562;13.384;2023-04-03T01:25:32;6.93;;;3.27;;
34433;SDS011;34290;48.562;13.384;2023-04-03T01:28:02;3.90;;;3.13;;
34433;SDS011;34290;48.562;13.384;2023-04-03T01:30:31;5.67;;;3.27;;
34433;SDS011;34290;48.562;13.384;2023-04-03T01:33:02;5.03;;;3.33;;
34433;SDS011;34290;48.562;13.384;2023-04-03T01:35:29;5.20;;;3.07;;
34433;SDS011;34290;48.562;13.384;2023-04-03T01:37:56;4.93;;;3.30;;
34433;SDS011;34290;48.562;13.384;2023-04-03T01:40:23;4.53;;;3.20;;
34433;SDS011;34290;48.562;13.384;2023-04-03T01:42:50;7.17;;;3.27;;
34433;SDS011;34290;48.562;13.384;2023-04-03T01:45:17;6.90;;;3.30;;
34433;SDS011;34290;48.562;13.384;2023-04-03T01:47:44;3.90;;;3.00;;
34433;SDS011;34290;48.562;13.384;2023-04-03T01:50:12;4.03;;;3.00;;
34433;SDS011;34290;48.562;13.384;2023-04-03T01:52:39;3.87;;;3.00;;
34433;SDS011;34290;48.562;13.384;2023-04-03T01:55:07;5.77;;;3.40;;
34433;SDS011;34290;48.562;13.384;2023-04-03T01:57:34;5.07;;;3.40;;
34433;SDS011;34290;48.562;13.384;2023-04-03T02:00:02;5.77;;;3.10;;
34433;SDS011;34290;48.562;13.384;2023-04-03T02:02:30;5.60;;;3.53;;
34433;SDS011;34290;48.562;13.384;2023-04-03T02:04:57;5.20;;;3.00;;
34433;SDS011;34290;48.562;13.384;2023-04-03T02:07:25;5.40;;;3.60;;
34433;SDS011;34290;48.562;13.384;2023-04-03T02:09:52;4.20;;;3.30;;
34433;SDS011;34290;48.562;13.384;2023-04-03T02:12:19;6.90;;;3.47;;
34433;SDS011;34290;48.562;13.384;2023-04-03T02:14:46;6.23;;;3.83;;
34433;SDS011;34290;48.562;13.384;2023-04-03T02:17:13;6.50;;;3.30;;
34433;SDS011;34290;48.562;13.384;2023-04-03T02:19:40;6.70;;;3.63;;
34433;SDS011;34290;48.562;13.384;2023-04-03T02:22:07;6.97;;;3.70;;
34433;SDS011;34290;48.562;13.384;2023-04-03T02:24:36;8.27;;;3.63;;
34433;SDS011;34290;48.562;13.384;2023-04-03T02:27:04;5.63;;;3.43;;
34433;SDS011;34290;48.562;13.384;2023-04-03T02:29:31;6.73;;;3.57;;
34433;SDS011;34290;48.562;13.384;2023-04-03T02:31:58;6.83;;;3.60;;
34433;SDS011;34290;48.562;13.384;2023-04-03T02:34:25;5.57;;;3.90;;
34433;SDS011;34290;48.562;13.384;2023-04-03T02:36:52;6.70;;;4.30;;
34433;SDS011;34290;48.562;13.384;2023-04-03T02:39:19;7.10;;;4.17;;
34433;SDS011;34290;48.562;13.384;2023-04-03T02:41:48;6.17;;;3.43;;
34433;SDS011;34290;48.562;13.384;2023-04-03T02:44:15;8.37;;;3.97;;
34433;SDS011;34290;48.562;13.384;2023-04-03T02:46:42;6.07;;;3.80;;
34433;SDS011;34290;48.562;13.384;2023-04-03T02:49:09;7.23;;;4.03;;
34433;SDS011;34290;48.562;13.384;2023-04-03T02:51:37;5.40;;;3.33;;
34433;SDS011;34290;48.562;13.384;2023-04-03T02:54:04;5.23;;;3.77;;
34433;SDS011;34290;48.562;13.384;2023-04-03T02:56:31;7.30;;;4.23;;
34433;SDS011;34290;48.562;13.384;2023-04-03T02:58:59;5.37;;;3.97;;
34433;SDS011;34290;48.562;13.384;2023-04-03T03:01:26;8.43;;;4.23;;
34433;SDS011;34290;48.562;13.384;2023-04-03T03:03:56;7.90;;;4.33;;
34433;SDS011;34290;48.562;13.384;2023-04-03T03:06:23;9.30;;;3.93;;
34433;SDS011;34290;48.562;13.384;2023-04-03T03:08:50;5.90;;;4.10;;
34433;SDS011;34290;48.562;13.384;2023-04-03T03:11:17;5.60;;;3.77;;
34433;SDS011;34290;48.562;13.384;2023-04-03T03:13:45;6.00;;;4.10;;
34433;SDS011;34290;48.562;13.384;2023-04-03T03:16:13;7.03;;;3.93;;
34433;SDS011;34290;48.562;13.384;2023-04-03T03:18:40;7.43;;;4.00;;
34433;SDS011;34290;48.562;13.384;2023-04-03T03:21:08;8.37;;;4.53;;
34433;SDS011;34290;48.562;13.384;2023-04-03T03:23:36;7.00;;;4.17;;
34433;SDS011;34290;48.562;13.384;2023-04-03T03:26:04;5.63;;;3.97;;
34433;SDS011;34290;48.562;13.384;2023-04-03T03:28:32;7.87;;;4.50;;
34433;SDS011;34290;48.562;13.384;2023-04-03T03:31:00;6.20;;;3.93;;
34433;SDS011;34290;48.562;13.384;2023-04-03T03:33:28;6.43;;;4.37;;
34433;SDS011;34290;48.562;13.384;2023-04-03T03:35:56;7.13;;;4.30;;
34433;SDS011;34290;48.562;13.384;2023-04-03T03:38:23;7.27;;;4.67;;
34433;SDS011;34290;48.562;13.384;2023-04-03T03:40:50;7.83;;;4.33;;
34433;SDS011;34290;48.562;13.384;2023-04-03T03:43:18;6.80;;;4.50;;
34433;SDS011;34290;48.562;13.384;2023-04-03T03:45:46;8.23;;;4.43;;
34433;SDS011;34290;48.562;13.384;2023-04-03T03:48:16;5.90;;;4.00;;
34433;SDS011;34290;48.562;13.384;2023-04-03T03:50:45;7.73;;;4.53;;
34433;SDS011;34290;48.562;13.384;2023-04-03T03:53:12;7.77;;;4.70;;
34433;SDS011;34290;48.562;13.384;2023-04-03T03:55:40;8.57;;;4.60;;
34433;SDS011;34290;48.562;13.384;2023-04-03T03:58:07;8.13;;;4.53;;
34433;SDS011;34290;48.562;13.384;2023-04-03T04:00:34;6.13;;;4.63;;
34433;SDS011;34290;48.562;13.384;2023-04-03T04:03:01;8.03;;;4.80;;
34433;SDS011;34290;48.562;13.384;2023-04-03T04:05:28;8.63;;;4.90;;
34433;SDS011;34290;48.562;13.384;2023-04-03T04:07:56;7.23;;;4.57;;
34433;SDS011;34290;48.562;13.384;2023-04-03T04:10:24;9.43;;;4.40;;
34433;SDS011;34290;48.562;13.384;2023-04-03T04:12:51;9.30;;;4.90;;
34433;SDS011;34290;48.562;13.384;2023-04-03T04:15:18;8.93;;;5.07;;
34433;SDS011;34290;48.562;13.384;2023-04-03T04:17:46;7.07;;;4.90;;
34433;SDS011;34290;48.562;13.384;2023-04-03T04:20:13;8.57;;;4.97;;
34433;SDS011;34290;48.562;13.384;2023-04-03T04:22:41;8.03;;;4.90;;
34433;SDS011;34290;48.562;13.384;2023-04-03T04:25:09;6.37;;;4.67;;
34433;SDS011;34290;48.562;13.384;2023-04-03T04:27:36;7.73;;;4.73;;
34433;SDS011;34290;48.562;13.384;2023-04-03T04:30:04;9.87;;;5.00;;
34433;SDS011;34290;48.562;13.384;2023-04-03T04:32:32;8.27;;;4.70;;
34433;SDS011;34290;48.562;13.384;2023-04-03T04:34:59;7.47;;;4.83;;
34433;SDS011;34290;48.562;13.384;2023-04-03T04:37:26;9.83;;;4.70;;
34433;SDS011;34290;48.562;13.384;2023-04-03T04:39:53;9.47;;;5.00;;
34433;SDS011;34290;48.562;13.384;2023-04-03T04:42:25;11.60;;;5.00;;
34433;SDS011;34290;48.562;13.384;2023-04-03T04:44:52;6.77;;;4.60;;
34433;SDS011;34290;48.562;13.384;2023-04-03T04:47:19;9.23;;;4.80;;
34433;SDS011;34290;48.562;13.384;2023-04-03T04:49:46;7.53;;;4.90;;
34433;SDS011;34290;48.562;13.384;2023-04-03T04:52:13;6.87;;;4.73;;
34433;SDS011;34290;48.562;13.384;2023-04-03T04:54:41;8.07;;;4.63;;
34433;SDS011;34290;48.562;13.384;2023-04-03T04:57:08;6.67;;;4.73;;
34433;SDS011;34290;48.562;13.384;2023-04-03T04:59:37;9.33;;;4.63;;
34433;SDS011;34290;48.562;13.384;2023-04-03T05:02:04;6.53;;;4.33;;
34433;SDS011;34290;48.562;13.384;2023-04-03T05:04:31;10.27;;;4.90;;
34433;SDS011;34290;48.562;13.384;2023-04-03T05:06:58;10.10;;;4.80;;
34433;SDS011;34290;48.562;13.384;2023-04-03T05:09:25;9.10;;;5.43;;
34433;SDS011;34290;48.562;13.384;2023-04-03T05:11:52;9.63;;;5.00;;
34433;SDS011;34290;48.562;13.384;2023-04-03T05:14:21;8.43;;;5.00;;
34433;SDS011;34290;48.562;13.384;2023-04-03T05:16:49;11.53;;;4.60;;
34433;SDS011;34290;48.562;13.384;2023-04-03T05:19:18;7.60;;;4.80;;
34433;SDS011;34290;48.562;13.384;2023-04-03T05:21:46;8.10;;;5.10;;
34433;SDS011;34290;48.562;13.384;2023-04-03T05:24:13;8.40;;;4.60;;
34433;SDS011;34290;48.562;13.384;2023-04-03T05:26:41;6.17;;;4.37;;
34433;SDS011;34290;48.562;13.384;2023-04-03T05:29:08;9.17;;;5.00;;
34433;SDS011;34290;48.562;13.384;2023-04-03T05:31:35;8.27;;;4.93;;
34433;SDS011;34290;48.562;13.384;2023-04-03T05:34:04;7.70;;;5.10;;
34433;SDS011;34290;48.562;13.384;2023-04-03T05:36:31;12.87;;;5.13;;
34433;SDS011;34290;48.562;13.384;2023-04-03T05:38:58;7.40;;;4.80;;
34433;SDS011;34290;48.562;13.384;2023-04-03T05:41:25;8.30;;;4.90;;
34433;SDS011;34290;48.562;13.384;2023-04-03T05:43:52;7.17;;;4.70;;
34433;SDS011;34290;48.562;13.384;2023-04-03T05:46:19;9.27;;;5.40;;
34433;SDS011;34290;48.562;13.384;2023-04-03T05:48:47;9.23;;;4.70;;
34433;SDS011;34290;48.562;13.384;2023-04-03T05:51:16;11.80;;;5.57;;
34433;SDS011;34290;48.562;13.384;2023-04-03T05:53:45;9.53;;;5.30;;
34433;SDS011;34290;48.562;13.384;2023-04-03T05:56:13;7.80;;;5.00;;
34433;SDS011;34290;48.562;13.384;2023-04-03T05:58:40;9.27;;;4.80;;
34433;SDS011;34290;48.562;13.384;2023-04-03T06:01:07;6.70;;;4.23;;
34433;SDS011;34290;48.562;13.384;2023-04-03T06:03:34;8.17;;;4.60;;
34433;SDS011;34290;48.562;13.384;2023-04-03T06:06:02;6.17;;;3.93;;
34433;SDS011;34290;48.562;13.384;2023-04-03T06:08:32;6.47;;;4.37;;
34433;SDS011;34290;48.562;13.384;2023-04-03T06:11:00;6.70;;;4.23;;
34433;SDS011;34290;48.562;13.384;2023-04-03T06:13:28;6.03;;;4.60;;
34433;SDS011;34290;48.562;13.384;2023-04-03T06:15:55;8.87;;;5.20;;
34433;SDS011;34290;48.562;13.384;2023-04-03T06:18:23;9.90;;;5.17;;
34433;SDS011;34290;48.562;13.384;2023-04-03T06:20:50;9.77;;;5.93;;
34433;SDS011;34290;48.562;13.384;2023-04-03T06:23:17;13.17;;;6.03;;
34433;SDS011;34290;48.562;13.384;2023-04-03T06:25:46;12.77;;;5.43;;
34433;SDS011;34290;48.562;13.384;2023-04-03T06:28:13;9.07;;;5.23;;
34433;SDS011;34290;48.562;13.384;2023-04-03T06:30:40;10.13;;;5.27;;
34433;SDS011;34290;48.562;13.384;2023-04-03T06:33:07;7.93;;;5.43;;
34433;SDS011;34290;48.562;13.384;2023-04-03T06:35:34;8.57;;;5.27;;
34433;SDS011;34290;48.562;13.384;2023-04-03T06:38:03;8.77;;;5.60;;
34433;SDS011;34290;48.562;13.384;2023-04-03T06:40:34;10.00;;;5.00;;
34433;SDS011;34290;48.562;13.384;2023-04-03T06:43:03;9.67;;;5.43;;
34433;SDS011;34290;48.562;13.384;2023-04-03T06:45:30;9.60;;;4.87;;
34433;SDS011;34290;48.562;13.384;2023-04-03T06:47:57;8.43;;;4.73;;
34433;SDS011;34290;48.562;13.384;2023-04-03T06:50:24;10.00;;;5.00;;
34433;SDS011;34290;48.562;13.384;2023-04-03T06:52:51;8.70;;;4.50;;
34433;SDS011;34290;48.562;13.384;2023-04-03T06:55:18;8.77;;;4.17;;
34433;SDS011;34290;48.562;13.384;2023-04-03T06:57:45;7.23;;;3.97;;
34433;SDS011;34290;48.562;13.384;2023-04-03T07:00:14;12.67;;;3.50;;
34433;SDS011;34290;48.562;13.384;2023-04-03T07:02:42;5.40;;;3.70;;
34433;SDS011;34290;48.562;13.384;2023-04-03T07:05:09;7.60;;;3.67;;
34433;SDS011;34290;48.562;13.384;2023-04-03T07:07:36;7.00;;;3.93;;
34433;SDS011;34290;48.562;13.384;2023-04-03T07:10:04;10.03;;;4.33;;
34433;SDS011;34290;48.562;13.384;2023-04-03T07:12:32;10.70;;;4.73;;
34433;SDS011;34290;48.562;13.384;2023-04-03T07:15:00;8.27;;;4.67;;
34433;SDS011;34290;48.562;13.384;2023-04-03T07:17:29;8.53;;;4.70;;
34433;SDS011;34290;48.562;13.384;2023-04-03T07:19:56;8.83;;;4.50;;
34433;SDS011;34290;48.562;13.384;2023-04-03T07:22:23;6.77;;;4.30;;
34433;SDS011;34290;48.562;13.384;2023-04-03T07:24:50;6.70;;;4.50;;
34433;SDS011;34290;48.562;13.384;2023-04-03T07:27:17;7.30;;;4.37;;
34433;SDS011;34290;48.562;13.384;2023-04-03T07:29:44;7.73;;;4.00;;
34433;SDS011;34290;48.562;13.384;2023-04-03T07:32:13;7.77;;;4.40;;
34433;SDS011;34290;48.562;13.384;2023-04-03T07:34:42;6.03;;;3.57;;
34433;SDS011;34290;48.562;13.384;2023-04-03T07:37:09;6.40;;;4.10;;
34433;SDS011;34290;48.562;13.384;2023-04-03T07:39:37;6.03;;;3.87;;
34433;SDS011;34290;48.562;13.384;2023-04-03T07:42:05;6.63;;;4.23;;
34433;SDS011;34290;48.562;13.384;2023-04-03T07:44:32;7.53;;;3.93;;
34433;SDS011;34290;48.562;13.384;2023-04-03T07:47:00;8.00;;;4.33;;
34433;SDS011;34290;48.562;13.384;2023-04-03T07:49:27;7.57;;;3.93;;
34433;SDS011;34290;48.562;13.384;2023-04-03T07:51:56;6.97;;;4.47;;
34433;SDS011;34290;48.562;13.384;2023-04-03T07:54:23;7.90;;;4.00;;
34433;SDS011;34290;48.562;13.384;2023-04-03T07:56:50;5.77;;;3.40;;
34433;SDS011;34290;48.562;13.384;2023-04-03T07:59:17;5.50;;;3.07;;
34433;SDS011;34290;48.562;13.384;2023-04-03T08:01:45;6.03;;;2.83;;
34433;SDS011;34290;48.562;13.384;2023-04-03T08:04:12;6.50;;;3.03;;
34433;SDS011;34290;48.562;13.384;2023-04-03T08:06:39;5.43;;;2.93;;
34433;SDS011;34290;48.562;13.384;2023-04-03T08:09:08;6.47;;;2.27;;
34433;SDS011;34290;48.562;13.384;2023-04-03T08:11:35;5.07;;;2.53;;
34433;SDS011;34290;48.562;13.384;2023-04-03T08:14:02;5.40;;;2.13;;
34433;SDS011;34290;48.562;13.384;2023-04-03T08:16:29;4.30;;;2.50;;
34433;SDS011;34290;48.562;13.384;2023-04-03T08:18:56;7.47;;;2.23;;
34433;SDS011;34290;48.562;13.384;2023-04-03T08:21:24;8.90;;;2.60;;
34433;SDS011;34290;48.562;13.384;2023-04-03T08:23:51;3.20;;;1.80;;
34433;SDS011;34290;48.562;13.384;2023-04-03T08:26:20;4.20;;;2.30;;
34433;SDS011;34290;48.562;13.384;2023-04-03T08:28:48;3.30;;;2.00;;
34433;SDS011;34290;48.562;13.384;2023-04-03T08:31:16;1.67;;;1.50;;
34433;SDS011;34290;48.562;13.384;2023-04-03T08:33:45;2.73;;;1.67;;
34433;SDS011;34290;48.562;13.384;2023-04-03T08:36:18;3.90;;;1.90;;
34433;SDS011;34290;48.562;13.384;2023-04-03T08:38:46;1.80;;;1.50;;
34433;SDS011;34290;48.562;13.384;2023-04-03T08:41:14;3.73;;;1.87;;
34433;SDS011;34290;48.562;13.384;2023-04-03T08:43:51;2.10;;;1.70;;
34433;SDS011;34290;48.562;13.384;2023-04-03T08:46:24;5.20;;;1.93;;
34433;SDS011;34290;48.562;13.384;2023-04-03T08:48:55;3.53;;;1.80;;
34433;SDS011;34290;48.562;13.384;2023-04-03T08:51:25;2.70;;;1.67;;
34433;SDS011;34290;48.562;13.384;2023-04-03T08:53:54;2.80;;;1.97;;
34433;SDS011;34290;48.562;13.384;2023-04-03T08:56:24;2.60;;;1.80;;
34433;SDS011;34290;48.562;13.384;2023-04-03T08:58:55;2.80;;;2.00;;
34433;SDS011;34290;48.562;13.384;2023-04-03T09:01:25;1.33;;;1.20;;
34433;SDS011;34290;48.562;13.384;2023-04-03T09:03:56;2.40;;;1.23;;
34433;SDS011;34290;48.562;13.384;2023-04-03T09:06:23;1.60;;;1.50;;
34433;SDS011;34290;48.562;13.384;2023-04-03T09:09:04;2.77;;;1.70;;
34433;SDS011;34290;48.562;13.384;2023-04-03T09:11:41;1.73;;;1.50;;
34433;SDS011;34290;48.562;13.384;2023-04-03T09:14:15;5.00;;;1.47;;
34433;SDS011;34290;48.562;13.384;2023-04-03T09:16:47;3.83;;;2.00;;
34433;SDS011;34290;48.562;13.384;2023-04-03T09:19:20;2.80;;;1.40;;
34433;SDS011;34290;48.562;13.384;2023-04-03T09:21:48;1.77;;;1.27;;
34433;SDS011;34290;48.562;13.384;2023-04-03T09:24:16;4.20;;;1.60;;
34433;SDS011;34290;48.562;13.384;2023-04-03T09:26:44;10.17;;;1.80;;
34433;SDS011;34290;48.562;13.384;2023-04-03T09:29:16;2.60;;;1.70;;
34433;SDS011;34290;48.562;13.384;2023-04-03T09:31:46;1.50;;;1.40;;
34433;SDS011;34290;48.562;13.384;2023-04-03T09:34:16;1.77;;;1.40;;
34433;SDS011;34290;48.562;13.384;2023-04-03T09:36:46;1.53;;;1.27;;
34433;SDS011;34290;48.562;13.384;2023-04-03T09:39:16;1.43;;;1.33;;
34433;SDS011;34290;48.562;13.384;2023-04-03T09:41:54;2.57;;;1.47;;
34433;SDS011;34290;48.562;13.384;2023-04-03T09:44:25;4.57;;;2.00;;
34433;SDS011;34290;48.562;13.384;2023-04-03T09:46:53;3.37;;;1.80;;
34433;SDS011;34290;48.562;13.384;2023-04-03T09:49:20;2.33;;;1.50;;
34433;SDS011;34290;48.562;13.384;2023-04-03T09:51:47;3.93;;;1.70;;
34433;SDS011;34290;48.562;13.384;2023-04-03T09:54:31;4.27;;;1.47;;
34433;SDS011;34290;48.562;13.384;2023-04-03T09:57:04;4.10;;;1.60;;
34433;SDS011;34290;48.562;13.384;2023-04-03T09:59:35;3.93;;;1.67;;
34433;SDS011;34290;48.562;13.384;2023-04-03T10:02:16;2.93;;;1.30;;
34433;SDS011;34290;48.562;13.384;2023-04-03T10:04:47;2.10;;;1.60;;
34433;SDS011;34290;48.562;13.384;2023-04-03T10:10:00;3.70;;;1.50;;
34433;SDS011;34290;48.562;13.384;2023-04-03T10:12:41;3.33;;;1.70;;
34433;SDS011;34290;48.562;13.384;2023-04-03T10:15:12;3.40;;;1.90;;
34433;SDS011;34290;48.562;13.384;2023-04-03T10:17:43;3.23;;;1.90;;
34433;SDS011;34290;48.562;13.384;2023-04-03T10:20:24;1.80;;;1.43;;
34433;SDS011;34290;48.562;13.384;2023-04-03T10:22:56;2.30;;;1.87;;
34433;SDS011;34290;48.562;13.384;2023-04-03T10:25:28;4.80;;;1.67;;
34433;SDS011;34290;48.562;13.384;2023-04-03T10:27:58;3.40;;;1.77;;
34433;SDS011;34290;48.562;13.384;2023-04-03T10:30:34;3.70;;;1.90;;
34433;SDS011;34290;48.562;13.384;2023-04-03T10:33:24;2.70;;;1.70;;
34433;SDS011;34290;48.562;13.384;2023-04-03T10:35:59;2.57;;;1.43;;
34433;SDS011;34290;48.562;13.384;2023-04-03T10:38:37;3.53;;;1.50;;
34433;SDS011;34290;48.562;13.384;2023-04-03T10:41:15;3.30;;;2.03;;
34433;SDS011;34290;48.562;13.384;2023-04-03T10:43:49;2.87;;;1.73;;
34433;SDS011;34290;48.562;13.384;2023-04-03T10:46:27;3.23;;;1.53;;
34433;SDS011;34290;48.562;13.384;2023-04-03T10:48:59;2.63;;;1.50;;
34433;SDS011;34290;48.562;13.384;2023-04-03T10:51:29;3.80;;;1.83;;
34433;SDS011;34290;48.562;13.384;2023-04-03T10:54:00;1.87;;;1.60;;
34433;SDS011;34290;48.562;13.384;2023-04-03T10:56:35;2.83;;;1.80;;
34433;SDS011;34290;48.562;13.384;2023-04-03T10:59:08;3.63;;;1.90;;
34433;SDS011;34290;48.562;13.384;2023-04-03T11:01:45;2.30;;;1.60;;
34433;SDS011;34290;48.562;13.384;2023-04-03T11:04:15;3.60;;;2.10;;
34433;SDS011;34290;48.562;13.384;2023-04-03T11:06:44;3.27;;;1.73;;
34433;SDS011;34290;48.562;13.384;2023-04-03T11:09:16;2.17;;;1.70;;
34433;SDS011;34290;48.562;13.384;2023-04-03T11:11:47;2.83;;;1.90;;
34433;SDS011;34290;48.562;13.384;2023-04-03T11:14:17;2.70;;;1.70;;
34433;SDS011;34290;48.562;13.384;2023-04-03T11:16:53;2.50;;;2.00;;
34433;SDS011;34290;48.562;13.384;2023-04-03T11:19:26;4.80;;;1.60;;
34433;SDS011;34290;48.562;13.384;2023-04-03T11:21:57;2.67;;;1.80;;
34433;SDS011;34290;48.562;13.384;2023-04-03T11:24:25;2.10;;;1.67;;
34433;SDS011;34290;48.562;13.384;2023-04-03T11:26:55;4.20;;;2.00;;
34433;SDS011;34290;48.562;13.384;2023-04-03T11:29:25;3.77;;;1.87;;
34433;SDS011;34290;48.562;13.384;2023-04-03T11:34:42;2.57;;;1.80;;
34433;SDS011;34290;48.562;13.384;2023-04-03T11:37:13;2.47;;;1.90;;
34433;SDS011;34290;48.562;13.384;2023-04-03T11:39:48;3.73;;;1.77;;
34433;SDS011;34290;48.562;13.384;2023-04-03T11:42:24;3.83;;;2.00;;
34433;SDS011;34290;48.562;13.384;2023-04-03T11:47:51;2.73;;;1.60;;
34433;SDS011;34290;48.562;13.384;2023-04-03T11:53:03;9.10;;;1.90;;
34433;SDS011;34290;48.562;13.384;2023-04-03T11:55:58;13.80;;;2.23;;
34433;SDS011;34290;48.562;13.384;2023-04-03T11:58:27;3.03;;;2.10;;
34433;SDS011;34290;48.562;13.384;2023-04-03T12:01:02;2.27;;;1.70;;
34433;SDS011;34290;48.562;13.384;2023-04-03T12:09:29;4.67;;;1.80;;
34433;SDS011;34290;48.562;13.384;2023-04-03T12:12:36;3.73;;;2.17;;
34433;SDS011;34290;48.562;13.384;2023-04-03T12:20:59;3.27;;;2.20;;
34433;SDS011;34290;48.562;13.384;2023-04-03T12:23:28;2.63;;;2.17;;
34433;SDS011;34290;48.562;13.384;2023-04-03T12:26:01;4.50;;;2.57;;
34433;SDS011;34290;48.562;13.384;2023-04-03T12:28:36;3.20;;;1.90;;
34433;SDS011;34290;48.562;13.384;2023-04-03T12:31:04;4.47;;;2.23;;
34433;SDS011;34290;48.562;13.384;2023-04-03T12:33:37;2.33;;;1.77;;
34433;SDS011;34290;48.562;13.384;2023-04-03T12:36:23;3.67;;;2.30;;
34433;SDS011;34290;48.562;13.384;2023-04-03T12:39:05;5.73;;;2.40;;
34433;SDS011;34290;48.562;13.384;2023-04-03T12:41:41;3.83;;;2.40;;
34433;SDS011;34290;48.562;13.384;2023-04-03T12:44:26;4.33;;;2.30;;
34433;SDS011;34290;48.562;13.384;2023-04-03T12:47:07;3.97;;;2.57;;
34433;SDS011;34290;48.562;13.384;2023-04-03T12:49:35;2.63;;;1.97;;
34433;SDS011;34290;48.562;13.384;2023-04-03T12:52:05;4.03;;;2.23;;
34433;SDS011;34290;48.562;13.384;2023-04-03T12:54:44;6.03;;;2.63;;
34433;SDS011;34290;48.562;13.384;2023-04-03T12:57:19;3.53;;;2.10;;
34433;SDS011;34290;48.562;13.384;2023-04-03T12:59:47;2.47;;;2.10;;
34433;SDS011;34290;48.562;13.384;2023-04-03T13:02:18;2.67;;;1.73;;
34433;SDS011;34290;48.562;13.384;2023-04-03T13:04:48;5.60;;;2.20;;
34433;SDS011;34290;48.562;13.384;2023-04-03T13:07:23;3.37;;;2.30;;
34433;SDS011;34290;48.562;13.384;2023-04-03T13:10:00;5.17;;;2.43;;
34433;SDS011;34290;48.562;13.384;2023-04-03T13:12:29;3.03;;;2.17;;
34433;SDS011;34290;48.562;13.384;2023-04-03T13:14:57;5.87;;;2.83;;
34433;SDS011;34290;48.562;13.384;2023-04-03T13:17:26;3.10;;;2.23;;
34433;SDS011;34290;48.562;13.384;2023-04-03T13:19:53;2.63;;;2.00;;
34433;SDS011;34290;48.562;13.384;2023-04-03T13:22:26;4.83;;;2.30;;
34433;SDS011;34290;48.562;13.384;2023-04-03T13:24:59;5.67;;;2.70;;
34433;SDS011;34290;48.562;13.384;2023-04-03T13:27:32;2.13;;;1.67;;
34433;SDS011;34290;48.562;13.384;2023-04-03T13:30:00;4.57;;;2.20;;
34433;SDS011;34290;48.562;13.384;2023-04-03T13:32:29;3.87;;;2.40;;
34433;SDS011;34290;48.562;13.384;2023-04-03T13:34:58;6.63;;;2.60;;
34433;SDS011;34290;48.562;13.384;2023-04-03T13:37:26;3.13;;;2.10;;
34433;SDS011;34290;48.562;13.384;2023-04-03T13:39:58;3.43;;;2.37;;
34433;SDS011;34290;48.562;13.384;2023-04-03T13:42:28;3.27;;;2.30;;
34433;SDS011;34290;48.562;13.384;2023-04-03T13:45:11;2.90;;;1.87;;
34433;SDS011;34290;48.562;13.384;2023-04-03T13:47:43;3.57;;;2.20;;
34433;SDS011;34290;48.562;13.384;2023-04-03T13:50:15;2.90;;;2.20;;
34433;SDS011;34290;48.562;13.384;2023-04-03T13:52:43;3.57;;;2.20;;
34433;SDS011;34290;48.562;13.384;2023-04-03T13:55:17;3.87;;;2.30;;
34433;SDS011;34290;48.562;13.384;2023-04-03T13:57:49;10.00;;;2.37;;
34433;SDS011;34290;48.562;13.384;2023-04-03T14:03:11;3.70;;;2.13;;
34433;SDS011;34290;48.562;13.384;2023-04-03T14:05:39;2.53;;;2.23;;
34433;SDS011;34290;48.562;13.384;2023-04-03T14:08:06;3.00;;;1.93;;
34433;SDS011;34290;48.562;13.384;2023-04-03T14:10:35;8.47;;;2.43;;
34433;SDS011;34290;48.562;13.384;2023-04-03T14:13:02;4.67;;;2.67;;
34433;SDS011;34290;48.562;13.384;2023-04-03T14:15:30;4.23;;;2.47;;
34433;SDS011;34290;48.562;13.384;2023-04-03T14:17:59;3.77;;;2.63;;
34433;SDS011;34290;48.562;13.384;2023-04-03T14:20:26;2.37;;;2.17;;
34433;SDS011;34290;48.562;13.384;2023-04-03T14:22:54;4.93;;;2.30;;
34433;SDS011;34290;48.562;13.384;2023-04-03T14:25:21;5.37;;;2.27;;
34433;SDS011;34290;48.562;13.384;2023-04-03T14:27:50;5.13;;;2.40;;
34433;SDS011;34290;48.562;13.384;2023-04-03T14:30:18;5.23;;;2.30;;
34433;SDS011;34290;48.562;13.384;2023-04-03T14:32:48;5.50;;;2.80;;
34433;SDS011;34290;48.562;13.384;2023-04-03T14:35:16;7.03;;;3.17;;
34433;SDS011;34290;48.562;13.384;2023-04-03T14:37:44;9.17;;;5.03;;
34433;SDS011;34290;48.562;13.384;2023-04-03T14:40:13;3.27;;;2.10;;
34433;SDS011;34290;48.562;13.384;2023-04-03T14:42:40;4.80;;;2.33;;
34433;SDS011;34290;48.562;13.384;2023-04-03T14:45:08;9.07;;;4.83;;
34433;SDS011;34290;48.562;13.384;2023-04-03T14:47:36;4.50;;;2.73;;
34433;SDS011;34290;48.562;13.384;2023-04-03T14:50:06;3.37;;;2.27;;
34433;SDS011;34290;48.562;13.384;2023-04-03T14:52:36;5.73;;;2.97;;
34433;SDS011;34290;48.562;13.384;2023-04-03T14:55:03;10.20;;;6.27;;
34433;SDS011;34290;48.562;13.384;2023-04-03T14:57:31;3.67;;;2.43;;
34433;SDS011;34290;48.562;13.384;2023-04-03T15:00:00;5.03;;;2.73;;
34433;SDS011;34290;48.562;13.384;2023-04-03T15:02:29;4.47;;;2.67;;
34433;SDS011;34290;48.562;13.384;2023-04-03T15:04:57;3.40;;;2.50;;
34433;SDS011;34290;48.562;13.384;2023-04-03T15:07:25;6.27;;;2.70;;
34433;SDS011;34290;48.562;13.384;2023-04-03T15:09:55;6.43;;;2.73;;
34433;SDS011;34290;48.562;13.384;2023-04-03T15:12:23;5.03;;;2.47;;
34433;SDS011;34290;48.562;13.384;2023-04-03T15:14:50;8.20;;;3.13;;